createdAt,value
2018-02-11T00:01:14.703Z,75.30
2018-02-11T00:03:42.878Z,75.20
2018-02-11T00:06:11.059Z,75.20
2018-02-11T00:08:39.948Z,75.30
2018-02-11T00:11:08.053Z,75.30
2018-02-11T00:13:36.161Z,75.30
2018-02-11T00:16:04.254Z,75.40
2018-02-11T00:18:32.366Z,75.30
2018-02-11T00:21:01.460Z,75.30
2018-02-11T00:23:29.717Z,75.20
2018-02-11T00:25:57.826Z,75.30
2018-02-11T00:28:25.976Z,75.20
2018-02-11T00:30:54.789Z,75.00
2018-02-11T00:33:22.906Z,75.00
2018-02-11T00:35:51.008Z,75.10
2018-02-11T00:38:19.266Z,74.90
2018-02-11T00:40:47.495Z,75.10
2018-02-11T00:43:15.731Z,75.10
2018-02-11T00:45:43.963Z,75.20
2018-02-11T00:48:12.188Z,75.20
2018-02-11T00:50:40.314Z,75.20
2018-02-11T00:53:08.425Z,75.20
2018-02-11T00:55:36.547Z,75.00
2018-02-11T00:58:04.654Z,75.10
2018-02-11T01:00:32.773Z,75.00
2018-02-11T01:03:00.871Z,75.00
2018-02-11T01:05:28.993Z,75.10
2018-02-11T01:07:57.160Z,75.10
2018-02-11T01:10:26.447Z,75.30
2018-02-11T01:12:54.549Z,75.20
2018-02-11T01:15:22.666Z,75.20
2018-02-11T01:17:50.792Z,75.30
2018-02-11T01:20:18.912Z,75.30
2018-02-11T01:22:47.001Z,75.20
2018-02-11T01:25:15.110Z,75.00
2018-02-11T01:27:43.258Z,75.00
2018-02-11T01:30:15.314Z,75.00
2018-02-11T01:32:44.186Z,74.90
2018-02-11T01:35:12.296Z,74.90
2018-02-11T01:37:40.397Z,75.00
2018-02-11T01:40:08.517Z,74.70
2018-02-11T01:42:36.632Z,74.80
2018-02-11T01:45:04.736Z,74.90
2018-02-11T01:47:32.846Z,74.80
2018-02-11T01:50:16.410Z,75.00
2018-02-11T01:52:44.534Z,75.00
2018-02-11T01:55:12.632Z,75.00
2018-02-11T01:57:40.751Z,74.90
2018-02-11T02:00:08.974Z,74.90
2018-02-11T02:02:37.907Z,74.90
2018-02-11T02:05:06.075Z,74.80
2018-02-11T02:07:34.185Z,74.80
2018-02-11T02:10:02.275Z,74.80
2018-02-11T02:12:30.385Z,74.80
2018-02-11T02:14:59.305Z,74.90
2018-02-11T02:17:27.405Z,74.90
2018-02-11T02:19:55.811Z,74.90
2018-02-11T02:22:23.925Z,74.90
2018-02-11T02:24:52.034Z,74.90
2018-02-11T02:27:20.193Z,74.90
2018-02-11T02:29:48.372Z,74.90
2018-02-11T02:32:16.488Z,74.90
2018-02-11T02:34:44.583Z,74.90
2018-02-11T02:37:12.712Z,75.00
2018-02-11T02:39:40.844Z,75.00
2018-02-11T02:42:08.954Z,75.00
2018-02-11T02:44:37.092Z,75.00
2018-02-11T02:47:05.200Z,75.00
2018-02-11T02:49:33.316Z,75.00
2018-02-11T02:52:01.425Z,75.10
2018-02-11T02:54:29.534Z,75.10
2018-02-11T02:56:57.652Z,75.20
2018-02-11T02:59:25.909Z,75.00
2018-02-11T03:01:54.110Z,75.00
2018-02-11T03:04:22.224Z,75.00
2018-02-11T03:06:50.322Z,75.00
2018-02-11T03:09:18.462Z,74.90
2018-02-11T03:11:46.598Z,74.90
2018-02-11T03:14:14.694Z,74.80
2018-02-11T03:16:42.778Z,74.90
2018-02-11T03:19:10.938Z,74.90
2018-02-11T03:21:39.814Z,75.00
2018-02-11T03:24:07.913Z,74.90
2018-02-11T03:26:36.777Z,74.80
2018-02-11T03:29:04.874Z,74.80
2018-02-11T03:31:33.765Z,74.60
2018-02-11T03:34:01.871Z,74.60
2018-02-11T03:36:29.969Z,74.60
2018-02-11T03:38:58.140Z,74.60
2018-02-11T03:41:26.352Z,74.70
2018-02-11T03:43:54.454Z,74.70
2018-02-11T03:46:22.611Z,74.70
2018-02-11T03:48:50.705Z,74.80
2018-02-11T03:51:18.825Z,74.90
2018-02-11T03:53:46.939Z,75.00
2018-02-11T03:56:15.079Z,75.00
2018-02-11T03:58:43.949Z,75.10
2018-02-11T04:01:12.052Z,75.00
2018-02-11T04:03:40.923Z,75.10
2018-02-11T04:06:09.025Z,75.00
2018-02-11T04:08:37.145Z,75.00
2018-02-11T04:11:05.254Z,75.00
2018-02-11T04:13:33.371Z,75.00
2018-02-11T04:16:01.560Z,75.00
2018-02-11T04:18:29.892Z,75.00
2018-02-11T04:20:57.993Z,75.00
2018-02-11T04:23:26.111Z,75.00
2018-02-11T04:25:54.233Z,75.00
2018-02-11T04:28:23.089Z,75.10
2018-02-11T04:30:51.180Z,75.00
2018-02-11T04:33:19.366Z,74.90
2018-02-11T04:35:47.520Z,74.90
2018-02-11T04:38:16.198Z,74.90
2018-02-11T04:40:44.320Z,75.00
2018-02-11T04:43:12.450Z,75.00
2018-02-11T04:45:40.549Z,75.00
2018-02-11T04:48:08.672Z,75.00
2018-02-11T04:50:36.922Z,75.60
2018-02-11T04:53:05.013Z,75.00
2018-02-11T04:55:33.144Z,74.80
2018-02-11T04:58:01.255Z,74.80
2018-02-11T05:00:29.366Z,74.70
2018-02-11T05:02:57.485Z,74.70
2018-02-11T05:05:25.601Z,75.30
2018-02-11T05:07:53.799Z,74.50
2018-02-11T05:10:22.022Z,74.50
2018-02-11T05:12:50.144Z,74.40
2018-02-11T05:15:18.255Z,74.30
2018-02-11T05:17:46.353Z,74.20
2018-02-11T05:20:14.545Z,74.20
2018-02-11T05:22:42.650Z,74.30
2018-02-11T05:25:10.815Z,74.10
2018-02-11T05:27:38.905Z,74.10
2018-02-11T05:30:07.015Z,74.00
2018-02-11T05:32:35.103Z,74.20
2018-02-11T05:35:03.211Z,73.90
2018-02-11T05:37:31.313Z,74.00
2018-02-11T05:39:59.427Z,73.90
2018-02-11T05:42:27.535Z,73.90
2018-02-11T05:44:55.648Z,73.90
2018-02-11T05:47:23.775Z,73.90
2018-02-11T05:49:51.926Z,73.90
2018-02-11T05:52:20.043Z,74.00
2018-02-11T05:54:48.157Z,73.90
2018-02-11T05:57:16.287Z,73.80
2018-02-11T05:59:44.416Z,73.70
2018-02-11T06:02:12.548Z,73.70
2018-02-11T06:04:40.668Z,73.80
2018-02-11T06:07:08.936Z,73.70
2018-02-11T06:09:37.068Z,73.80
2018-02-11T06:12:05.949Z,73.80
2018-02-11T06:14:34.068Z,73.70
2018-02-11T06:17:02.176Z,73.80
2018-02-11T06:19:30.290Z,73.70
2018-02-11T06:21:58.420Z,73.90
2018-02-11T06:24:26.568Z,73.90
2018-02-11T06:26:54.912Z,74.80
2018-02-11T06:29:23.093Z,74.00
2018-02-11T06:31:51.208Z,74.00
2018-02-11T06:34:19.392Z,74.10
2018-02-11T06:36:47.509Z,74.10
2018-02-11T06:39:15.622Z,74.10
2018-02-11T06:41:43.730Z,73.90
2018-02-11T06:44:11.907Z,73.90
2018-02-11T06:46:40.403Z,74.00
2018-02-11T06:49:09.263Z,73.90
2018-02-11T06:51:37.362Z,73.90
2018-02-11T06:54:06.379Z,73.90
2018-02-11T06:56:34.513Z,73.90
2018-02-11T06:59:02.633Z,73.90
2018-02-11T07:01:31.391Z,74.00
2018-02-11T07:03:59.561Z,74.00
2018-02-11T07:06:28.437Z,74.20
2018-02-11T07:08:56.554Z,74.20
2018-02-11T07:11:24.681Z,74.20
2018-02-11T07:13:52.788Z,74.30
2018-02-11T07:16:20.892Z,74.40
2018-02-11T07:18:49.008Z,74.50
2018-02-11T07:21:17.127Z,74.50
2018-02-11T07:23:45.322Z,74.60
2018-02-11T07:26:13.424Z,74.50
2018-02-11T07:28:41.546Z,74.50
2018-02-11T07:31:09.654Z,74.60
2018-02-11T07:33:37.775Z,74.60
2018-02-11T07:36:05.930Z,75.40
2018-02-11T07:38:34.796Z,74.80
2018-02-11T07:41:02.915Z,75.60
2018-02-11T07:43:31.024Z,74.90
2018-02-11T07:45:59.177Z,75.00
2018-02-11T07:48:27.373Z,75.10
2018-02-11T07:50:55.490Z,75.30
2018-02-11T07:53:23.592Z,75.40
2018-02-11T07:55:51.697Z,75.60
2018-02-11T07:58:19.857Z,75.60
2018-02-11T08:00:48.029Z,75.90
2018-02-11T08:03:16.145Z,76.00
2018-02-11T08:05:45.022Z,76.20
2018-02-11T08:08:13.123Z,76.20
2018-02-11T08:10:41.229Z,76.30
2018-02-11T08:13:09.309Z,76.30
2018-02-11T08:15:37.399Z,76.40
2018-02-11T08:18:05.525Z,76.30
2018-02-11T08:20:33.619Z,76.40
2018-02-11T08:23:01.726Z,76.40
2018-02-11T08:25:29.812Z,76.50
2018-02-11T08:27:58.676Z,76.40
2018-02-11T08:30:26.883Z,76.40
2018-02-11T08:32:54.986Z,76.30
2018-02-11T08:35:23.088Z,76.20
2018-02-11T08:37:51.196Z,76.30
2018-02-11T08:40:20.046Z,76.40
2018-02-11T08:42:48.320Z,76.40
2018-02-11T08:45:16.412Z,76.40
2018-02-11T08:47:44.512Z,76.40
2018-02-11T08:50:12.608Z,76.20
2018-02-11T08:52:40.780Z,76.20
2018-02-11T08:55:08.893Z,76.20
2018-02-11T08:57:37.111Z,76.20
2018-02-11T09:00:05.216Z,76.20
2018-02-11T09:02:33.319Z,76.40
2018-02-11T09:05:01.510Z,76.40
2018-02-11T09:07:29.604Z,76.30
2018-02-11T09:09:58.614Z,76.40
2018-02-11T09:12:26.788Z,76.30
2018-02-11T09:14:54.903Z,76.10
2018-02-11T09:17:22.996Z,75.90
2018-02-11T09:19:51.096Z,76.00
2018-02-11T09:22:19.190Z,75.90
2018-02-11T09:24:47.389Z,76.20
2018-02-11T09:27:15.589Z,76.20
2018-02-11T09:29:43.697Z,76.00
2018-02-11T09:32:11.804Z,75.90
2018-02-11T09:34:39.897Z,75.80
2018-02-11T09:37:08.797Z,75.50
2018-02-11T09:39:36.960Z,75.50
2018-02-11T09:42:05.072Z,75.50
2018-02-11T09:44:33.167Z,75.30
2018-02-11T09:47:01.270Z,75.10
2018-02-11T09:49:29.361Z,74.70
2018-02-11T09:51:57.473Z,74.90
2018-02-11T09:54:25.580Z,74.70
2018-02-11T09:56:53.723Z,74.70
2018-02-11T09:59:21.806Z,74.80
2018-02-11T10:01:49.927Z,74.70
2018-02-11T10:04:18.042Z,74.80
2018-02-11T10:06:46.174Z,74.70
2018-02-11T10:09:14.342Z,74.70
2018-02-11T10:11:42.439Z,74.60
2018-02-11T10:14:10.538Z,74.10
2018-02-11T10:16:38.954Z,74.10
2018-02-11T10:19:07.807Z,74.00
2018-02-11T10:21:36.677Z,73.90
2018-02-11T10:24:04.790Z,73.90
2018-02-11T10:26:32.890Z,73.60
2018-02-11T10:29:01.755Z,73.10
2018-02-11T10:31:29.863Z,73.10
2018-02-11T10:33:58.074Z,72.90
2018-02-11T10:36:26.155Z,72.50
2018-02-11T10:38:54.308Z,72.60
2018-02-11T10:41:22.405Z,72.00
2018-02-11T10:43:50.495Z,72.10
2018-02-11T10:46:18.647Z,72.20
2018-02-11T10:48:46.761Z,72.00
2018-02-11T10:51:14.943Z,72.10
2018-02-11T10:53:43.041Z,72.10
2018-02-11T10:56:11.761Z,72.00
2018-02-11T10:58:39.976Z,71.70
2018-02-11T11:01:08.137Z,71.50
2018-02-11T11:03:36.324Z,71.20
2018-02-11T11:06:04.430Z,70.90
2018-02-11T11:08:32.605Z,71.00
2018-02-11T11:11:00.700Z,71.20
2018-02-11T11:13:28.961Z,71.00
2018-02-11T11:15:57.076Z,71.10
2018-02-11T11:18:25.196Z,71.00
2018-02-11T11:20:53.297Z,70.90
2018-02-11T11:23:21.400Z,70.90
2018-02-11T11:25:50.292Z,70.50
2018-02-11T11:28:19.156Z,70.00
2018-02-11T11:30:48.545Z,70.00
2018-02-11T11:33:16.692Z,70.00
2018-02-11T11:35:44.816Z,69.90
2018-02-11T11:38:12.954Z,69.70
2018-02-11T11:40:41.132Z,68.90
2018-02-11T11:43:09.280Z,69.00
2018-02-11T11:45:37.416Z,69.20
2018-02-11T11:48:05.587Z,69.00
2018-02-11T11:50:34.469Z,69.00
2018-02-11T11:53:02.567Z,69.00
2018-02-11T11:55:30.667Z,68.90
2018-02-11T11:57:58.932Z,68.80
2018-02-11T12:00:27.194Z,69.70
2018-02-11T12:02:55.372Z,68.90
2018-02-11T12:05:23.944Z,68.90
2018-02-11T12:07:52.061Z,68.90
2018-02-11T12:10:21.140Z,68.60
2018-02-11T12:12:50.848Z,68.70
2018-02-11T12:15:19.522Z,68.60
2018-02-11T12:17:48.489Z,68.70
2018-02-11T12:20:16.641Z,68.70
2018-02-11T12:22:44.819Z,68.40
2018-02-11T12:25:12.919Z,68.00
2018-02-11T12:27:41.036Z,67.80
2018-02-11T12:30:09.160Z,68.30
2018-02-11T12:32:37.584Z,68.30
2018-02-11T12:35:05.704Z,68.10
2018-02-11T12:37:34.628Z,68.60
2018-02-11T12:40:03.572Z,68.40
2018-02-11T12:42:32.280Z,68.50
2018-02-11T12:45:00.481Z,68.60
2018-02-11T12:47:28.658Z,68.40
2018-02-11T12:49:56.857Z,68.30
2018-02-11T12:52:25.038Z,68.30
2018-02-11T12:54:53.552Z,67.30
2018-02-11T12:57:22.463Z,67.60
2018-02-11T12:59:50.562Z,67.50
2018-02-11T13:02:18.740Z,67.80
2018-02-11T13:04:46.885Z,68.40
2018-02-11T13:07:15.009Z,68.60
2018-02-11T13:09:43.560Z,68.90
2018-02-11T13:12:12.284Z,69.00
2018-02-11T13:14:40.695Z,69.10
2018-02-11T13:17:08.804Z,69.20
2018-02-11T13:19:36.907Z,69.10
2018-02-11T13:22:05.137Z,69.00
2018-02-11T13:24:33.676Z,69.10
2018-02-11T13:27:02.605Z,69.20
2018-02-11T13:29:30.731Z,69.20
2018-02-11T13:31:58.882Z,69.40
2018-02-11T13:34:26.985Z,69.50
2018-02-11T13:36:55.072Z,69.30
2018-02-11T13:39:25.023Z,69.50
2018-02-11T13:41:53.137Z,69.50
2018-02-11T13:44:21.327Z,69.60
2018-02-11T13:46:50.224Z,69.40
2018-02-11T13:49:19.926Z,69.50
2018-02-11T13:51:48.032Z,69.50
2018-02-11T13:54:16.130Z,69.50
2018-02-11T13:56:44.235Z,69.40
2018-02-11T13:59:12.371Z,69.50
2018-02-11T14:01:40.474Z,69.70
2018-02-11T14:04:08.593Z,69.70
2018-02-11T14:06:36.686Z,69.80
2018-02-11T14:09:04.820Z,69.80
2018-02-11T14:11:32.988Z,69.90
2018-02-11T14:14:01.849Z,70.20
2018-02-11T14:16:29.966Z,70.10
2018-02-11T14:18:58.059Z,70.30
2018-02-11T14:21:26.171Z,70.40
2018-02-11T14:23:54.314Z,70.30
2018-02-11T14:26:22.478Z,70.40
2018-02-11T14:28:50.724Z,70.50
2018-02-11T14:31:18.961Z,70.70
2018-02-11T14:33:47.536Z,70.80
2018-02-11T14:36:15.639Z,70.90
2018-02-11T14:38:43.793Z,71.10
2018-02-11T14:41:11.948Z,71.20
2018-02-11T14:43:40.112Z,71.40
2018-02-11T14:46:08.230Z,71.50
2018-02-11T14:48:36.332Z,71.60
2018-02-11T14:51:04.427Z,71.70
2018-02-11T14:53:32.547Z,71.80
2018-02-11T14:56:00.659Z,71.90
2018-02-11T14:58:29.233Z,72.00
2018-02-11T15:00:57.405Z,72.10
2018-02-11T15:03:25.503Z,72.20
2018-02-11T15:05:53.645Z,72.30
2018-02-11T15:08:21.793Z,72.60
2018-02-11T15:10:49.937Z,72.60
2018-02-11T15:13:18.043Z,72.80
2018-02-11T15:15:46.179Z,73.00
2018-02-11T15:18:14.292Z,73.10
2018-02-11T15:20:42.383Z,73.30
2018-02-11T15:23:10.489Z,73.30
2018-02-11T15:25:38.612Z,73.40
2018-02-11T15:28:06.724Z,73.40
2018-02-11T15:30:34.806Z,73.60
2018-02-11T15:33:02.988Z,73.70
2018-02-11T15:35:31.084Z,73.90
2018-02-11T15:37:59.960Z,74.10
2018-02-11T15:40:28.064Z,74.00
2018-02-11T15:42:56.964Z,74.30
2018-02-11T15:45:25.074Z,74.30
2018-02-11T15:47:53.214Z,74.50
2018-02-11T15:50:21.331Z,74.50
2018-02-11T15:52:49.460Z,74.60
2018-02-11T15:55:17.559Z,74.80
2018-02-11T15:57:45.692Z,74.80
2018-02-11T16:00:13.944Z,75.00
2018-02-11T16:02:42.078Z,75.00
2018-02-11T16:05:10.208Z,75.10
2018-02-11T16:07:38.367Z,75.20
2018-02-11T16:10:06.492Z,75.30
2018-02-11T16:12:34.593Z,75.40
2018-02-11T16:15:02.760Z,75.40
2018-02-11T16:17:30.915Z,75.40
2018-02-11T16:19:59.009Z,75.40
2018-02-11T16:22:27.123Z,75.50
2018-02-11T16:24:55.265Z,76.30
2018-02-11T16:27:23.404Z,75.50
2018-02-11T16:29:51.553Z,75.70
2018-02-11T16:32:20.413Z,76.00
2018-02-11T16:34:48.625Z,75.90
2018-02-11T16:37:16.778Z,76.00
2018-02-11T16:39:45.640Z,76.20
2018-02-11T16:42:13.743Z,76.10
2018-02-11T16:44:41.858Z,76.10
2018-02-11T16:47:10.718Z,76.10
2018-02-11T16:49:38.932Z,76.10
2018-02-11T16:52:07.070Z,76.20
2018-02-11T16:54:35.188Z,76.10
2018-02-11T16:57:03.370Z,76.20
2018-02-11T16:59:31.590Z,76.40
2018-02-11T17:01:59.735Z,76.50
2018-02-11T17:04:27.934Z,76.70
2018-02-11T17:06:56.045Z,76.80
2018-02-11T17:09:24.154Z,76.80
2018-02-11T17:11:52.257Z,76.90
2018-02-11T17:14:20.359Z,76.90
2018-02-11T17:16:48.701Z,77.00
2018-02-11T17:19:16.912Z,77.10
2018-02-11T17:21:45.086Z,77.30
2018-02-11T17:24:13.194Z,77.30
2018-02-11T17:26:42.143Z,77.40
2018-02-11T17:29:10.303Z,77.40
2018-02-11T17:31:38.437Z,77.40
2018-02-11T17:34:07.358Z,77.50
2018-02-11T17:36:35.577Z,77.40
2018-02-11T17:39:03.783Z,77.40
2018-02-11T17:41:32.014Z,77.50
2018-02-11T17:44:00.281Z,77.40
2018-02-11T17:46:28.549Z,77.60
2018-02-11T17:48:56.849Z,77.60
2018-02-11T17:51:24.964Z,77.80
2018-02-11T17:53:53.060Z,77.90
2018-02-11T17:56:21.583Z,77.90
2018-02-11T17:58:49.759Z,77.90
2018-02-11T18:01:17.901Z,78.10
2018-02-11T18:03:46.012Z,77.90
2018-02-11T18:06:14.871Z,78.10
2018-02-11T18:08:43.140Z,78.10
2018-02-11T18:11:11.289Z,78.10
2018-02-11T18:13:39.407Z,78.10
2018-02-11T18:16:08.384Z,78.20
2018-02-11T18:18:36.490Z,78.20
2018-02-11T18:21:05.346Z,78.40
2018-02-11T18:23:34.005Z,78.40
2018-02-11T18:26:02.117Z,78.50
2018-02-11T18:28:30.248Z,78.60
2018-02-11T18:30:59.008Z,78.70
2018-02-11T18:33:27.197Z,78.70
2018-02-11T18:35:55.308Z,78.90
2018-02-11T18:38:23.424Z,78.90
2018-02-11T18:40:51.516Z,78.90
2018-02-11T18:43:19.626Z,78.90
2018-02-11T18:45:47.760Z,78.90
2018-02-11T18:48:15.881Z,79.00
2018-02-11T18:50:43.964Z,79.10
2018-02-11T18:53:12.136Z,79.10
2018-02-11T18:55:40.240Z,79.30
2018-02-11T18:58:08.353Z,79.30
2018-02-11T19:00:36.476Z,79.30
2018-02-11T19:03:04.575Z,80.10
2018-02-11T19:05:32.693Z,79.30
2018-02-11T19:08:00.775Z,79.40
2018-02-11T19:10:28.964Z,79.30
2018-02-11T19:12:57.192Z,79.40
2018-02-11T19:15:25.397Z,79.60
2018-02-11T19:17:53.511Z,79.60
2018-02-11T19:20:21.611Z,79.70
2018-02-11T19:22:49.785Z,79.70
2018-02-11T19:25:18.039Z,79.70
2018-02-11T19:27:46.149Z,79.70
2018-02-11T19:30:14.246Z,79.90
2018-02-11T19:32:42.391Z,79.90
2018-02-11T19:35:10.500Z,79.80
2018-02-11T19:37:38.639Z,79.90
2018-02-11T19:40:06.732Z,80.00
2018-02-11T19:42:34.847Z,80.00
2018-02-11T19:45:02.963Z,80.00
2018-02-11T19:47:31.118Z,80.00
2018-02-11T19:49:59.185Z,80.00
2018-02-11T19:52:27.282Z,80.00
2018-02-11T19:54:55.388Z,80.10
2018-02-11T19:57:23.545Z,80.10
2018-02-11T19:59:51.701Z,80.10
2018-02-11T20:02:19.820Z,80.20
2018-02-11T20:04:48.021Z,79.90
2018-02-11T20:07:16.104Z,80.30
2018-02-11T20:09:44.228Z,80.30
2018-02-11T20:12:12.314Z,80.30
2018-02-11T20:14:40.458Z,80.30
2018-02-11T20:17:08.684Z,80.30
2018-02-11T20:19:36.912Z,80.40
2018-02-11T20:22:05.178Z,80.40
2018-02-11T20:24:33.396Z,80.50
2018-02-11T20:27:01.663Z,80.60
2018-02-11T20:29:29.873Z,80.60
2018-02-11T20:31:58.209Z,80.60
2018-02-11T20:34:26.425Z,80.70
2018-02-11T20:36:54.587Z,80.80
2018-02-11T20:39:22.707Z,80.80
2018-02-11T20:41:50.797Z,80.80
2018-02-11T20:44:18.986Z,80.90
2018-02-11T20:46:47.091Z,80.90
2018-02-11T20:49:15.206Z,81.00
2018-02-11T20:51:44.070Z,81.10
2018-02-11T20:54:12.176Z,81.10
2018-02-11T20:56:40.333Z,81.10
2018-02-11T20:59:08.431Z,81.10
2018-02-11T21:01:36.555Z,81.20
2018-02-11T21:04:04.662Z,81.20
2018-02-11T21:06:32.780Z,81.20
2018-02-11T21:09:00.916Z,81.20
2018-02-11T21:11:29.145Z,81.20
2018-02-11T21:13:57.372Z,81.30
2018-02-11T21:16:25.606Z,81.20
2018-02-11T21:18:53.703Z,81.20
2018-02-11T21:21:22.591Z,81.30
2018-02-11T21:23:50.665Z,81.20
2018-02-11T21:26:18.804Z,81.40
2018-02-11T21:28:46.902Z,81.30
2018-02-11T21:31:15.054Z,81.50
2018-02-11T21:33:43.144Z,81.50
2018-02-11T21:36:11.268Z,81.20
2018-02-11T21:38:39.394Z,81.20
2018-02-11T21:41:07.537Z,81.40
2018-02-11T21:43:35.635Z,81.30
2018-02-11T21:46:04.555Z,81.60
2018-02-11T21:48:32.695Z,81.50
2018-02-11T21:51:00.797Z,81.70
2018-02-11T21:53:29.319Z,81.70
2018-02-11T21:55:57.557Z,81.70
2018-02-11T21:58:25.652Z,81.70
2018-02-11T22:00:53.925Z,81.80
2018-02-11T22:03:22.033Z,81.80
2018-02-11T22:05:50.175Z,81.80
2018-02-11T22:08:18.266Z,81.90
2018-02-11T22:10:46.359Z,82.00
2018-02-11T22:13:14.446Z,81.90
2018-02-11T22:15:42.613Z,81.80
2018-02-11T22:18:10.713Z,81.90
2018-02-11T22:20:38.869Z,82.00
2018-02-11T22:23:06.939Z,82.00
2018-02-11T22:25:35.049Z,82.00
2018-02-11T22:28:03.127Z,82.00
2018-02-11T22:30:31.283Z,81.80
2018-02-11T22:32:59.382Z,81.80
2018-02-11T22:35:27.584Z,81.80
2018-02-11T22:37:55.753Z,82.00
2018-02-11T22:40:23.832Z,82.00
2018-02-11T22:42:51.949Z,82.20
2018-02-11T22:45:20.039Z,82.10
2018-02-11T22:47:48.197Z,82.30
2018-02-11T22:50:16.286Z,82.30
2018-02-11T22:52:44.418Z,82.40
2018-02-11T22:55:12.490Z,82.40
2018-02-11T22:57:40.584Z,82.50
2018-02-11T23:00:08.765Z,82.50
2018-02-11T23:02:36.852Z,82.60
2018-02-11T23:05:04.946Z,82.70
2018-02-11T23:07:33.038Z,82.80
2018-02-11T23:10:01.155Z,82.90
2018-02-11T23:12:29.390Z,82.90
2018-02-11T23:14:57.550Z,82.90
2018-02-11T23:17:25.756Z,82.90
2018-02-11T23:19:53.869Z,83.00
2018-02-11T23:22:21.950Z,82.90
2018-02-11T23:24:50.061Z,82.90
2018-02-11T23:27:18.923Z,83.00
2018-02-11T23:29:47.006Z,82.90
2018-02-11T23:32:16.515Z,82.90
2018-02-11T23:34:45.401Z,82.90
2018-02-11T23:37:13.511Z,82.90
2018-02-11T23:39:41.624Z,82.80
2018-02-11T23:42:09.791Z,82.80
2018-02-11T23:44:37.907Z,82.80
2018-02-11T23:47:06.023Z,82.80
2018-02-11T23:49:34.122Z,82.80
2018-02-11T23:52:02.295Z,82.80
2018-02-11T23:54:30.519Z,82.80
2018-02-11T23:56:58.861Z,83.60
2018-02-11T23:59:27.741Z,82.90
